createdAt,value
2023-02-16T00:00:32.571Z,99166.88
2023-02-16T00:03:39.133Z,99164.31
2023-02-16T00:06:47.413Z,99155.72
2023-02-16T00:09:53.724Z,99156.63
2023-02-16T00:13:15.204Z,99158.34
2023-02-16T00:16:24.694Z,99165.47
2023-02-16T00:19:33.583Z,99164.69
2023-02-16T00:22:42.565Z,99158.72
2023-02-16T00:25:48.161Z,99149.22
2023-02-16T00:28:59.364Z,99140.69
2023-02-16T00:32:08.787Z,99136.50
2023-02-16T00:35:18.904Z,99141.78
2023-02-16T00:38:27.009Z,99137.63
2023-02-16T00:41:53.517Z,99139.50
2023-02-16T00:45:02.239Z,99142.28
2023-02-16T00:48:09.310Z,99138.06
2023-02-16T00:51:25.423Z,99125.25
2023-02-16T00:54:35.263Z,99125.19
2023-02-16T00:57:48.792Z,99122.59
2023-02-16T01:01:01.949Z,99126.03
2023-02-16T01:04:13.552Z,99125.22
2023-02-16T01:07:39.457Z,99116.69
2023-02-16T01:11:06.835Z,99109.78
2023-02-16T01:14:16.663Z,99109.69
2023-02-16T01:17:22.374Z,99107.91
2023-02-16T01:20:31.573Z,99107.88
2023-02-16T01:23:38.536Z,99100.91
2023-02-16T01:26:53.136Z,99091.34
2023-02-16T01:29:58.783Z,99092.09
2023-02-16T01:33:06.724Z,99091.22
2023-02-16T01:36:29.833Z,99090.44
2023-02-16T01:39:37.992Z,99092.13
2023-02-16T01:42:56.612Z,99088.66
2023-02-16T01:46:14.972Z,99084.34
2023-02-16T01:49:23.813Z,99090.50
2023-02-16T01:52:40.313Z,99088.84
2023-02-16T01:55:51.302Z,99077.81
2023-02-16T01:59:15.892Z,99080.41
2023-02-16T02:02:28.417Z,99087.28
2023-02-16T02:05:35.793Z,99090.91
2023-02-16T02:08:52.314Z,99082.34
2023-02-16T02:12:17.863Z,99072.78
2023-02-16T02:15:34.443Z,99072.72
2023-02-16T02:18:41.742Z,99071.06
2023-02-16T02:22:42.454Z,99076.28
2023-02-16T02:27:00.458Z,99070.25
2023-02-16T02:30:42.291Z,99079.78
2023-02-16T02:34:07.298Z,99076.47
2023-02-16T02:37:28.566Z,99068.69
2023-02-16T02:40:56.945Z,99078.94
2023-02-16T02:44:12.901Z,99072.03
2023-02-16T02:47:22.290Z,99062.53
2023-02-16T02:51:13.455Z,99059.19
2023-02-16T02:54:42.542Z,99070.28
2023-02-16T02:58:10.108Z,99071.97
2023-02-16T03:01:22.636Z,99076.22
2023-02-16T03:04:36.197Z,99068.50
2023-02-16T03:07:50.375Z,99078.00
2023-02-16T03:11:18.716Z,99069.47
2023-02-16T03:14:33.801Z,99075.47
2023-02-16T03:18:00.727Z,99074.75
2023-02-16T03:21:26.083Z,99075.53
2023-02-16T03:24:51.803Z,99073.72
2023-02-16T03:28:18.757Z,99074.56
2023-02-16T03:31:35.013Z,99075.50
2023-02-16T03:34:41.876Z,99071.22
2023-02-16T03:37:51.107Z,99073.72
2023-02-16T03:40:59.148Z,99065.97
2023-02-16T03:44:04.541Z,99064.16
2023-02-16T03:47:11.185Z,99055.44
2023-02-16T03:50:17.011Z,99050.38
2023-02-16T03:53:26.315Z,99058.97
2023-02-16T03:56:31.765Z,99045.94
2023-02-16T03:59:38.120Z,99051.09
2023-02-16T04:02:43.673Z,99039.81
2023-02-16T04:05:50.419Z,99052.81
2023-02-16T04:08:59.057Z,99053.75
2023-02-16T04:12:20.913Z,99042.66
2023-02-16T04:15:31.183Z,99040.91
2023-02-16T04:18:37.389Z,99042.63
2023-02-16T04:21:45.128Z,99016.94
2023-02-16T04:24:54.168Z,99033.19
2023-02-16T04:28:00.205Z,99035.81
2023-02-16T04:31:06.992Z,99028.88
2023-02-16T04:34:12.773Z,99031.50
2023-02-16T04:37:19.104Z,99034.94
2023-02-16T04:40:27.359Z,99022.03
2023-02-16T04:43:33.781Z,99030.72
2023-02-16T04:46:39.138Z,99028.13
2023-02-16T04:49:45.443Z,99027.19
2023-02-16T04:52:50.769Z,99015.06
2023-02-16T04:55:59.955Z,99023.66
2023-02-16T04:59:05.372Z,99029.78
2023-02-16T05:02:11.797Z,99029.84
2023-02-16T05:05:17.669Z,99030.75
2023-02-16T05:08:24.163Z,99029.91
2023-02-16T05:11:48.303Z,99032.50
2023-02-16T05:14:54.568Z,99033.41
2023-02-16T05:17:59.914Z,99021.31
2023-02-16T05:21:21.748Z,99017.00
2023-02-16T05:24:28.542Z,99012.66
2023-02-16T05:27:38.027Z,99022.94
2023-02-16T05:30:43.559Z,99023.84
2023-02-16T05:33:49.859Z,99021.25
2023-02-16T05:36:55.810Z,98980.09
2023-02-16T05:40:02.070Z,99028.81
2023-02-16T05:43:10.266Z,99028.81
2023-02-16T05:46:16.511Z,99031.47
2023-02-16T05:49:22.049Z,99029.69
2023-02-16T05:52:28.908Z,99025.38
2023-02-16T05:55:34.303Z,99027.22
2023-02-16T05:58:44.226Z,99033.25
2023-02-16T06:01:52.145Z,99035.88
2023-02-16T06:04:58.831Z,99038.56
2023-02-16T06:08:04.238Z,99048.25
2023-02-16T06:11:31.216Z,99015.88
2023-02-16T06:14:39.320Z,99064.56
2023-02-16T06:17:46.681Z,99063.66
2023-02-16T06:20:53.173Z,99069.66
2023-02-16T06:24:00.133Z,99059.41
2023-02-16T06:27:05.520Z,99056.72
2023-02-16T06:30:15.606Z,99055.00
2023-02-16T06:33:21.008Z,99063.50
2023-02-16T06:36:28.489Z,99064.38
2023-02-16T06:39:34.181Z,99058.38
2023-02-16T06:42:40.976Z,99052.47
2023-02-16T06:45:50.052Z,99054.91
2023-02-16T06:48:56.754Z,99061.03
2023-02-16T06:52:02.339Z,99061.69
2023-02-16T06:55:09.391Z,99087.56
2023-02-16T06:58:15.665Z,99054.72
2023-02-16T07:01:26.301Z,99052.09
2023-02-16T07:04:32.310Z,99002.06
2023-02-16T07:07:39.033Z,99064.00
2023-02-16T07:10:50.243Z,99059.53
2023-02-16T07:13:57.262Z,99060.28
2023-02-16T07:17:05.767Z,99068.81
2023-02-16T07:20:15.029Z,99075.59
2023-02-16T07:23:24.405Z,99057.31
2023-02-16T07:26:40.529Z,99072.84
2023-02-16T07:29:47.096Z,99060.59
2023-02-16T07:32:56.292Z,99050.19
2023-02-16T07:36:01.753Z,99069.16
2023-02-16T07:39:08.142Z,99066.25
2023-02-16T07:42:13.605Z,99064.53
2023-02-16T07:45:26.000Z,99061.56
2023-02-16T07:48:34.392Z,99055.38
2023-02-16T07:51:41.045Z,99059.75
2023-02-16T07:54:46.823Z,99068.09
2023-02-16T07:57:56.445Z,99062.59
2023-02-16T08:01:15.766Z,99060.66
2023-02-16T08:04:25.450Z,99056.13
2023-02-16T08:07:31.666Z,99048.94
2023-02-16T08:10:38.000Z,99043.53
2023-02-16T08:13:43.789Z,99053.09
2023-02-16T08:16:53.594Z,99049.69
2023-02-16T08:20:03.063Z,99038.41
2023-02-16T08:23:10.513Z,99045.94
2023-02-16T08:26:17.752Z,99050.94
2023-02-16T08:29:24.685Z,99053.28
2023-02-16T08:32:30.484Z,99052.13
2023-02-16T08:35:41.384Z,99057.88
2023-02-16T08:38:46.781Z,99043.78
2023-02-16T08:41:53.878Z,99050.75
2023-02-16T08:44:59.245Z,99055.72
2023-02-16T08:48:05.623Z,99059.06
2023-02-16T08:51:18.640Z,99021.97
2023-02-16T08:54:30.634Z,99038.97
2023-02-16T08:57:37.789Z,99060.75
2023-02-16T09:00:44.564Z,99050.88
2023-02-16T09:03:50.678Z,99052.16
2023-02-16T09:07:01.983Z,99052.81
2023-02-16T09:10:08.284Z,99053.47
2023-02-16T09:13:16.431Z,99053.25
2023-02-16T09:16:28.145Z,98964.13
2023-02-16T09:19:34.422Z,99047.56
2023-02-16T09:22:42.675Z,99055.94
2023-02-16T09:25:49.161Z,98940.91
2023-02-16T09:28:57.403Z,99074.34
2023-02-16T09:32:04.271Z,99062.91
2023-02-16T09:35:10.937Z,99062.16
2023-02-16T09:38:21.600Z,99049.88
2023-02-16T09:41:44.223Z,99069.56
2023-02-16T09:45:05.786Z,99059.63
2023-02-16T09:48:31.144Z,99062.09
2023-02-16T09:51:42.107Z,99055.66
2023-02-16T09:54:59.764Z,99060.31
2023-02-16T09:58:31.870Z,99051.81
2023-02-16T10:01:51.253Z,99055.75
2023-02-16T10:05:24.718Z,99053.84
2023-02-16T10:08:39.287Z,99052.81
2023-02-16T10:11:56.631Z,99048.50
2023-02-16T10:15:13.009Z,99051.22
2023-02-16T10:18:31.297Z,99044.88
2023-02-16T10:21:37.089Z,99044.84
2023-02-16T10:24:58.711Z,99043.34
2023-02-16T10:28:22.770Z,99037.78
2023-02-16T10:31:43.569Z,99023.38
2023-02-16T10:34:55.113Z,99021.94
2023-02-16T10:38:14.300Z,99020.34
2023-02-16T10:41:37.200Z,99018.84
2023-02-16T10:44:55.677Z,99017.13
2023-02-16T10:48:02.110Z,99011.50
2023-02-16T10:51:15.720Z,99005.88
2023-02-16T10:54:29.398Z,98999.69
2023-02-16T10:57:37.424Z,98987.66
2023-02-16T11:00:59.561Z,98979.56
2023-02-16T11:04:06.843Z,98991.66
2023-02-16T11:07:16.206Z,98974.91
2023-02-16T11:10:46.338Z,98972.84
2023-02-16T11:14:01.561Z,98969.69
2023-02-16T11:17:18.480Z,98972.34
2023-02-16T11:20:34.425Z,98965.34
2023-02-16T11:23:45.140Z,98960.09
2023-02-16T11:27:07.732Z,98964.69
2023-02-16T11:30:32.657Z,98949.78
2023-02-16T11:33:43.460Z,98944.03
2023-02-16T11:36:51.976Z,98953.91
2023-02-16T11:40:02.703Z,98900.91
2023-02-16T11:43:10.697Z,98944.66
2023-02-16T11:46:21.584Z,98944.19
2023-02-16T11:49:39.935Z,98951.06
2023-02-16T11:52:47.293Z,98949.28
2023-02-16T11:55:54.231Z,98942.97
2023-02-16T11:59:19.325Z,98936.91
2023-02-16T12:03:19.447Z,98931.28
2023-02-16T12:06:54.894Z,98938.03
2023-02-16T12:10:12.928Z,98924.78
2023-02-16T12:13:32.177Z,98931.41
2023-02-16T12:16:50.187Z,98928.34
2023-02-16T12:20:11.728Z,98926.38
2023-02-16T12:23:43.209Z,98932.22
2023-02-16T12:26:58.809Z,98932.09
2023-02-16T12:30:30.580Z,98930.00
2023-02-16T12:33:50.400Z,98912.97
2023-02-16T12:37:10.777Z,98906.97
2023-02-16T12:40:39.531Z,98916.06
2023-02-16T12:43:52.816Z,98916.66
2023-02-16T12:47:08.396Z,98910.53
2023-02-16T12:50:26.146Z,98908.13
2023-02-16T12:53:46.497Z,98898.66
2023-02-16T12:57:05.357Z,98902.00
2023-02-16T13:00:25.560Z,98884.91
2023-02-16T13:03:42.936Z,98891.00
2023-02-16T13:07:02.039Z,98887.75
2023-02-16T13:10:24.113Z,98880.78
2023-02-16T13:13:38.530Z,98874.53
2023-02-16T13:16:53.020Z,98884.59
2023-02-16T13:19:58.454Z,98880.59
2023-02-16T13:23:47.349Z,98887.34
2023-02-16T13:27:16.515Z,98875.81
2023-02-16T13:30:58.464Z,98877.22
2023-02-16T13:34:28.722Z,98876.34
2023-02-16T13:38:06.666Z,98885.50
2023-02-16T13:41:44.708Z,98892.06
2023-02-16T13:44:58.790Z,98869.81
2023-02-16T13:48:19.540Z,98869.81
2023-02-16T13:51:31.220Z,98867.84
2023-02-16T13:54:44.141Z,98857.25
2023-02-16T13:58:09.908Z,98854.19
2023-02-16T14:01:43.292Z,98856.34
2023-02-16T14:05:14.965Z,98850.88
2023-02-16T14:08:27.687Z,98856.03
2023-02-16T14:12:17.365Z,98852.25
2023-02-16T14:15:24.237Z,98856.06
2023-02-16T14:18:39.949Z,98861.06
2023-02-16T14:21:52.045Z,98852.16
2023-02-16T14:25:06.098Z,98851.91
2023-02-16T14:29:01.840Z,98850.84
2023-02-16T14:32:28.546Z,98848.81
2023-02-16T14:35:40.239Z,98856.72
2023-02-16T14:38:53.796Z,98853.88
2023-02-16T14:42:11.536Z,98850.59
2023-02-16T14:45:56.293Z,98854.00
2023-02-16T14:49:58.577Z,98858.41
2023-02-16T14:53:58.576Z,98850.56
2023-02-16T14:57:17.544Z,98854.84
2023-02-16T15:00:36.485Z,98867.38
2023-02-16T15:03:48.455Z,98859.44
2023-02-16T15:06:54.912Z,98852.03
2023-02-16T15:10:02.397Z,98850.09
2023-02-16T15:13:29.873Z,98846.81
2023-02-16T15:16:36.789Z,98847.19
2023-02-16T15:19:45.147Z,98858.44
2023-02-16T15:22:53.253Z,98858.31
2023-02-16T15:26:05.153Z,98862.72
2023-02-16T15:29:29.735Z,98864.56
2023-02-16T15:32:37.346Z,98866.66
2023-02-16T15:35:46.962Z,98861.66
2023-02-16T15:39:02.629Z,98863.38
2023-02-16T15:42:27.437Z,98866.59
2023-02-16T15:45:41.171Z,98858.19
2023-02-16T15:48:46.907Z,98849.94
2023-02-16T15:51:53.342Z,98841.75
2023-02-16T15:54:59.861Z,98836.88
2023-02-16T15:58:09.014Z,98824.81
2023-02-16T16:01:31.635Z,98839.31
2023-02-16T16:04:42.277Z,98838.69
2023-02-16T16:07:47.973Z,98836.94
2023-02-16T16:10:55.192Z,98839.84
2023-02-16T16:14:00.908Z,98845.28
2023-02-16T16:17:18.238Z,98847.31
2023-02-16T16:20:34.116Z,98848.19
2023-02-16T16:23:40.394Z,98844.09
2023-02-16T16:26:58.447Z,98848.53
2023-02-16T16:30:31.473Z,98849.59
2023-02-16T16:33:59.567Z,98849.69
2023-02-16T16:37:08.629Z,98853.22
2023-02-16T16:40:32.716Z,98768.66
2023-02-16T16:43:55.090Z,98851.41
2023-02-16T16:47:00.613Z,98849.69
2023-02-16T16:50:40.020Z,98848.09
2023-02-16T16:53:57.747Z,98853.59
2023-02-16T16:57:12.608Z,98848.50
2023-02-16T17:00:18.832Z,98845.25
2023-02-16T17:03:25.112Z,98836.41
2023-02-16T17:06:33.716Z,98815.16
2023-02-16T17:09:39.953Z,98845.91
2023-02-16T17:12:45.700Z,98850.69
2023-02-16T17:15:58.427Z,98845.72
2023-02-16T17:19:04.048Z,98843.16
2023-02-16T17:22:16.045Z,98841.75
2023-02-16T17:25:22.182Z,98846.75
2023-02-16T17:28:28.886Z,98846.84
2023-02-16T17:31:34.309Z,98835.59
2023-02-16T17:34:40.818Z,98841.81
2023-02-16T17:37:49.015Z,98840.31
2023-02-16T17:40:59.161Z,98838.69
2023-02-16T17:44:04.612Z,98837.00
2023-02-16T17:47:16.826Z,98831.78
2023-02-16T17:50:23.345Z,98835.19
2023-02-16T17:53:33.090Z,98836.78
2023-02-16T17:56:41.810Z,98849.00
2023-02-16T17:59:48.228Z,98844.66
2023-02-16T18:02:53.628Z,98838.59
2023-02-16T18:06:00.613Z,98847.28
2023-02-16T18:09:08.983Z,98847.28
2023-02-16T18:12:15.276Z,98842.38
2023-02-16T18:15:20.828Z,98857.34
2023-02-16T18:18:27.708Z,98858.66
2023-02-16T18:21:33.147Z,98863.34
2023-02-16T18:24:44.564Z,98865.25
2023-02-16T18:27:50.432Z,98862.81
2023-02-16T18:30:56.855Z,98868.09
2023-02-16T18:34:02.302Z,98871.47
2023-02-16T18:37:08.553Z,98874.94
2023-02-16T18:40:22.514Z,98871.50
2023-02-16T18:43:28.940Z,98872.47
2023-02-16T18:46:34.717Z,98875.22
2023-02-16T18:49:42.007Z,98876.16
2023-02-16T18:52:48.192Z,98875.56
2023-02-16T18:55:57.296Z,98872.94
2023-02-16T18:59:02.792Z,98880.00
2023-02-16T19:02:09.980Z,98870.50
2023-02-16T19:05:15.539Z,98872.38
2023-02-16T19:08:22.332Z,98868.09
2023-02-16T19:11:32.950Z,98873.28
2023-02-16T19:14:39.778Z,98869.03
2023-02-16T19:17:45.936Z,98870.75
2023-02-16T19:20:52.547Z,98870.75
2023-02-16T19:23:58.205Z,98870.69
2023-02-16T19:27:07.822Z,98873.28
2023-02-16T19:30:16.079Z,98880.34
2023-02-16T19:33:22.333Z,98868.28
2023-02-16T19:36:30.129Z,98877.88
2023-02-16T19:39:36.722Z,98874.38
2023-02-16T19:42:45.333Z,98876.16
2023-02-16T19:45:55.731Z,98863.91
2023-02-16T19:49:02.973Z,98865.50
2023-02-16T19:52:09.327Z,98868.03
2023-02-16T19:55:14.739Z,98859.50
2023-02-16T19:58:24.391Z,98860.56
2023-02-16T20:01:31.738Z,98858.84
2023-02-16T20:04:38.198Z,98862.34
2023-02-16T20:07:43.641Z,98864.22
2023-02-16T20:10:49.885Z,98869.53
2023-02-16T20:14:00.342Z,98868.78
2023-02-16T20:17:06.822Z,98868.00
2023-02-16T20:20:13.401Z,98866.28
2023-02-16T20:23:19.718Z,98864.66
2023-02-16T20:26:29.439Z,98869.97
2023-02-16T20:29:38.436Z,98870.16
2023-02-16T20:32:44.847Z,98871.13
2023-02-16T20:35:53.012Z,98871.25
2023-02-16T20:38:58.676Z,98860.03
2023-02-16T20:42:05.016Z,98866.94
2023-02-16T20:45:13.521Z,98854.72
2023-02-16T20:48:19.972Z,98859.91
2023-02-16T20:51:25.429Z,98868.63
2023-02-16T20:54:31.901Z,98861.00
2023-02-16T20:57:39.348Z,98827.72
2023-02-16T21:00:48.717Z,98866.94
2023-02-16T21:03:59.598Z,98859.34
2023-02-16T21:07:05.870Z,98858.59
2023-02-16T21:10:17.247Z,98855.19
2023-02-16T21:13:23.468Z,98856.91
2023-02-16T21:16:32.469Z,98815.78
2023-02-16T21:19:39.329Z,98859.44
2023-02-16T21:22:44.729Z,98856.84
2023-02-16T21:25:51.257Z,98852.69
2023-02-16T21:28:57.498Z,98850.25
2023-02-16T21:32:07.667Z,98852.91
2023-02-16T21:35:13.309Z,98852.16
2023-02-16T21:38:19.607Z,98855.63
2023-02-16T21:41:29.363Z,98853.94
2023-02-16T21:44:43.343Z,98841.84
2023-02-16T21:48:08.043Z,98850.31
2023-02-16T21:51:15.147Z,98857.13
2023-02-16T21:54:43.958Z,98848.41
2023-02-16T21:57:47.701Z,98851.84
2023-02-16T22:00:56.608Z,98839.94
2023-02-16T22:04:08.135Z,98849.50
2023-02-16T22:07:13.493Z,98841.72
2023-02-16T22:10:19.941Z,98845.25
2023-02-16T22:13:25.697Z,98842.75
2023-02-16T22:16:36.584Z,98821.69
2023-02-16T22:19:44.752Z,98850.81
2023-02-16T22:22:51.055Z,98845.63
2023-02-16T22:25:56.677Z,98835.25
2023-02-16T22:29:20.508Z,98845.47
2023-02-16T22:32:26.008Z,98843.63
2023-02-16T22:35:42.512Z,98853.22
2023-02-16T22:38:48.173Z,98842.06
2023-02-16T22:41:54.956Z,98782.13
2023-02-16T22:45:00.849Z,98852.16
2023-02-16T22:48:07.454Z,98855.63
2023-02-16T22:51:20.008Z,98850.44
2023-02-16T22:54:26.467Z,98846.75
2023-02-16T22:57:32.105Z,98844.91
2023-02-16T23:00:38.556Z,98848.47
2023-02-16T23:03:45.743Z,98847.59
2023-02-16T23:06:54.785Z,98841.50
2023-02-16T23:10:00.183Z,98842.47
2023-02-16T23:13:07.584Z,98756.44
2023-02-16T23:16:17.971Z,98845.97
2023-02-16T23:19:28.704Z,98843.63
2023-02-16T23:22:38.300Z,98851.50
2023-02-16T23:25:48.189Z,98846.44
2023-02-16T23:28:57.645Z,98840.44
2023-02-16T23:32:03.942Z,98837.91
2023-02-16T23:35:10.018Z,98835.13
2023-02-16T23:38:19.507Z,98833.19
2023-02-16T23:41:24.913Z,98821.72
2023-02-16T23:44:31.159Z,98823.22
2023-02-16T23:47:36.558Z,98805.91
2023-02-16T23:50:43.308Z,98806.63
2023-02-16T23:53:51.909Z,98809.91
2023-02-16T23:56:59.318Z,98809.72
